Time;durP1;ratioP1;P1;durP2;ratioP2;P2;SDS_P1;SDS_P2;PMS_P1;PMS_P2;Temp;Humidity;BMP_temperature;BMP_pressure;BME280_temperature;BME280_humidity;BME280_pressure;Samples;Min_cycle;Max_cycle;Signal;HPM_P1;HPM_P2
2021/01/16 05:54:52;;;;;;;25.90;14.65;;;1.00;96.80;;;;;;5219976;23;20056;-80
2021/01/16 05:57:22;;;;;;;27.98;15.65;;;1.00;96.80;;;;;;5039978;28;20072;-81
2021/01/16 05:59:51;;;;;;;28.48;15.40;;;1.00;96.90;;;;;;5071341;28;20045;-80
2021/01/16 06:02:18;;;;;;;25.48;15.07;;;0.90;96.90;;;;;;5046266;28;20054;-80
2021/01/16 06:04:47;;;;;;;27.95;14.98;;;0.90;97.00;;;;;;5056293;28;20053;-80
2021/01/16 06:07:15;;;;;;;27.42;15.75;;;0.80;97.20;;;;;;5046979;28;20476;-80
2021/01/16 06:09:42;;;;;;;28.75;15.75;;;0.80;97.20;;;;;;5040469;28;20041;-79
2021/01/16 06:12:15;;;;;;;27.77;14.93;;;0.70;97.40;;;;;;5049298;28;20057;-79
2021/01/16 06:14:44;;;;;;;27.83;15.85;;;0.60;97.50;;;;;;5051400;28;20041;-80
2021/01/16 06:17:12;;;;;;;26.67;15.00;;;0.70;97.50;;;;;;5017564;28;20500;-79
2021/01/16 06:19:43;;;;;;;27.77;15.02;;;0.70;97.40;;;;;;5047668;28;20126;-79
2021/01/16 06:22:12;;;;;;;29.33;15.43;;;0.70;97.40;;;;;;5037677;28;20533;-79
2021/01/16 09:11:11;;;;;;;28.37;15.20;;;0.90;96.30;;;;;;5890812;23;21107;31
2021/01/16 09:13:42;;;;;;;26.13;14.25;;;1.40;96.60;;;;;;4998869;28;20027;-80
2021/01/16 09:16:30;;;;;;;27.30;14.75;;;1.30;95.30;;;;;;4999142;28;20102;-79
2021/01/16 09:18:58;;;;;;;26.42;14.40;;;1.20;95.80;;;;;;4997541;28;20039;-84
2021/01/16 10:10:47;;;;;;;24.80;13.57;;;1.30;94.70;;;;;;5599573;23;20034;-83
2021/01/16 10:18:29;;;;;;;22.33;12.90;;;1.20;94.80;;;;;;5235421;22;19925;-83
2021/01/16 10:31:26;;;;;;;22.05;12.55;;;1.00;94.50;;;;;;5107231;22;20053;-81
2021/01/16 11:54:30;;;;;;;18.07;10.57;;;2.10;86.90;;;;;;5263405;22;20401;-83
2021/01/16 11:56:58;;;;;;;13.60;8.13;;;2.40;85.20;;;;;;4993793;28;20305;-84
2021/01/16 11:59:25;;;;;;;13.57;7.30;;;2.60;83.40;;;;;;4998380;28;20062;-84
2021/01/16 12:01:54;;;;;;;13.82;7.88;;;2.80;79.90;;;;;;4999067;28;20151;-83
2021/01/16 13:08:53;;;;;;;9.57;5.53;;;3.20;70.30;;;;;;5361440;23;20333;-86
2021/01/16 13:11:24;;;;;;;10.43;5.38;;;3.00;71.20;;;;;;5029664;28;20677;-88
2021/01/16 13:13:59;;;;;;;8.27;5.05;;;2.80;71.00;;;;;;5024064;28;20033;-86
2021/01/16 13:16:29;;;;;;;;;;;2.90;70.90;;;;;;5041038;28;20057;-85
2021/01/16 13:44:55;;;;;;;6.60;3.45;;;4.00;61.30;;;;;;5239423;23;20064;-84
2021/01/16 13:47:25;;;;;;;5.82;3.35;;;4.70;58.30;;;;;;5036145;28;20034;-82
2021/01/16 13:50:02;;;;;;;5.63;3.22;;;5.10;55.10;;;;;;5038207;28;20026;-82
2021/01/16 13:52:40;;;;;;;6.00;3.45;;;5.40;51.60;;;;;;5024997;28;20046;-81
2021/01/16 13:55:16;;;;;;;6.88;3.80;;;5.80;50.80;;;;;;5038801;28;20080;-82
2021/01/16 13:57:45;;;;;;;4.63;3.00;;;5.70;50.80;;;;;;5043612;28;20084;-80
2021/01/16 14:00:18;;;;;;;7.40;3.60;;;5.90;49.10;;;;;;5025433;28;20053;-80
2021/01/16 14:02:52;;;;;;;7.65;4.35;;;5.90;49.40;;;;;;5017531;28;20073;-81
2021/01/16 14:05:25;;;;;;;7.85;4.32;;;5.50;52.30;;;;;;5046718;28;20473;-83
2021/01/16 14:07:53;;;;;;;8.45;4.80;;;5.50;52.10;;;;;;5015841;28;20030;-83
2021/01/16 14:10:31;;;;;;;8.23;4.90;;;5.60;53.00;;;;;;5037744;28;20057;-83
2021/01/16 14:13:11;;;;;;;8.98;4.05;;;5.50;53.70;;;;;;5049824;28;20056;-84
2021/01/16 14:15:54;;;;;;;6.93;4.05;;;5.50;52.20;;;;;;5051691;28;20045;-83
2021/01/16 14:18:30;;;;;;;8.00;4.28;;;5.00;53.00;;;;;;5035250;28;20049;-81
2021/01/16 14:26:18;;;;;;;6.97;4.22;;;4.60;55.70;;;;;;5021696;28;20122;-82
2021/01/16 14:28:49;;;;;;;7.30;4.38;;;5.00;55.30;;;;;;5026142;28;20125;-83
2021/01/16 14:31:20;;;;;;;7.30;4.40;;;5.30;55.20;;;;;;5039389;28;20062;-83
2021/01/16 14:33:56;;;;;;;8.38;4.30;;;5.40;53.70;;;;;;5023373;28;20046;-82
2021/01/16 14:36:24;;;;;;;9.18;4.93;;;5.50;53.30;;;;;;5048409;28;20064;-83
2021/01/16 14:38:59;;;;;;;8.18;5.28;;;5.30;54.80;;;;;;5038658;28;20042;-84
2021/01/16 14:41:42;;;;;;;7.90;4.68;;;5.40;54.90;;;;;;5054051;28;20057;-82
2021/01/16 14:44:11;;;;;;;9.43;4.95;;;5.60;54.10;;;;;;5051158;28;20442;-83
2021/01/16 14:46:39;;;;;;;8.50;5.20;;;5.40;53.90;;;;;;5041706;28;20073;-83
2021/01/16 14:49:08;;;;;;;9.10;4.88;;;5.30;54.30;;;;;;5029120;28;20038;-81
2021/01/16 14:51:39;;;;;;;8.20;4.97;;;5.50;54.20;;;;;;5037134;28;20049;-81
2021/01/16 14:54:07;;;;;;;13.68;6.85;;;5.10;55.60;;;;;;5034459;28;20033;-84
2021/01/16 14:56:48;;;;;;;11.35;6.38;;;5.00;55.70;;;;;;5040885;28;20072;-85
2021/01/16 17:05:31;;;;;;;33.57;16.80;;;1.50;90.70;;;;;;5659699;23;20384;-82
2021/01/16 17:33:53;;;;;;;25.40;13.48;;;1.40;92.30;;;;;;6034700;23;21054;-81
2021/01/16 17:54:29;;;;;;;26.52;13.82;;;1.20;92.00;;;;;;5839986;23;20081;-83
2021/01/16 17:56:56;;;;;;;25.63;14.15;;;1.30;92.00;;;;;;5054234;28;20076;-85
2021/01/16 17:59:23;;;;;;;25.67;14.15;;;1.10;91.90;;;;;;5059915;28;20029;-83
2021/01/16 18:30:22;;;;;;;31.40;16.92;;;1.10;91.90;;;;;;6044703;23;20028;-81
2021/01/16 18:32:53;;;;;;;31.00;15.68;;;1.10;91.90;;;;;;5054162;28;20056;-83
2021/01/16 18:35:21;;;;;;;38.17;18.13;;;1.20;91.80;;;;;;5125874;23;20053;-81
2021/01/16 20:42:27;;;;;;;24.30;13.32;;;0.60;92.10;;;;;;4619095;26;20034;-82
2021/01/16 20:44:58;;;;;;;24.05;13.40;;;0.60;92.20;;;;;;5036800;28;20539;-82
